createdAt,value
2019-05-25T00:00:22.172Z,12.37
2019-05-25T00:05:27.750Z,12.57
2019-05-25T00:10:32.393Z,12.40
2019-05-25T00:15:38.816Z,11.27
2019-05-25T00:20:45.247Z,12.77
2019-05-25T00:25:51.218Z,13.17
2019-05-25T00:30:57.136Z,12.67
2019-05-25T00:36:02.044Z,13.00
2019-05-25T00:41:07.409Z,13.77
2019-05-25T00:46:12.448Z,13.50
2019-05-25T00:51:18.051Z,14.77
2019-05-25T00:56:22.947Z,12.37
2019-05-25T01:01:27.693Z,12.80
2019-05-25T01:06:32.768Z,11.83
2019-05-25T01:11:37.491Z,12.77
2019-05-25T01:16:42.239Z,12.90
2019-05-25T01:21:47.079Z,13.27
2019-05-25T01:26:51.822Z,13.93
2019-05-25T01:31:56.461Z,14.47
2019-05-25T01:37:01.209Z,15.27
2019-05-25T01:42:05.845Z,15.73
2019-05-25T01:47:10.589Z,15.17
2019-05-25T01:52:15.171Z,15.33
2019-05-25T01:57:19.770Z,15.03
2019-05-25T02:02:24.418Z,14.80
2019-05-25T02:07:29.059Z,14.00
2019-05-25T02:12:33.692Z,12.20
2019-05-25T02:17:38.312Z,11.97
2019-05-25T02:22:42.976Z,13.10
2019-05-25T02:27:47.719Z,13.17
2019-05-25T02:32:52.466Z,12.77
2019-05-25T02:37:59.338Z,13.07
2019-05-25T02:43:04.094Z,13.10
2019-05-25T02:48:08.843Z,12.93
2019-05-25T02:53:13.689Z,11.93
2019-05-25T02:58:19.563Z,12.37
2019-05-25T03:03:24.201Z,11.40
2019-05-25T03:08:29.826Z,11.40
2019-05-25T03:13:34.612Z,11.90
2019-05-25T03:18:39.351Z,14.87
2019-05-25T03:23:43.991Z,20.30
2019-05-25T03:28:48.736Z,22.20
2019-05-25T03:33:53.481Z,18.70
2019-05-25T03:38:58.226Z,19.10
2019-05-25T03:44:02.866Z,20.53
2019-05-25T03:49:07.817Z,16.83
2019-05-25T03:54:12.556Z,20.77
2019-05-25T03:59:18.324Z,17.90
2019-05-25T04:04:24.298Z,17.63
2019-05-25T04:09:29.046Z,19.20
2019-05-25T04:14:33.684Z,20.77
2019-05-25T04:19:38.426Z,22.70
2019-05-25T04:24:43.170Z,22.03
2019-05-25T04:29:49.462Z,16.53
2019-05-25T04:34:54.025Z,13.00
2019-05-25T04:39:58.731Z,12.03
2019-05-25T04:45:03.806Z,12.50
2019-05-25T04:50:08.595Z,12.80
2019-05-25T04:55:13.372Z,12.27
2019-05-25T05:00:20.779Z,12.70
2019-05-25T05:05:25.519Z,17.40
2019-05-25T05:10:30.154Z,18.07
2019-05-25T05:15:34.903Z,14.60
2019-05-25T05:20:39.652Z,11.63
2019-05-25T05:25:44.395Z,10.03
2019-05-25T05:30:49.147Z,7.83
2019-05-25T05:35:53.697Z,7.47
2019-05-25T05:40:58.732Z,7.57
2019-05-25T05:46:03.476Z,7.17
2019-05-25T05:51:09.505Z,7.40
2019-05-25T05:56:15.667Z,6.70
2019-05-25T06:01:21.598Z,6.77
2019-05-25T06:06:28.701Z,6.30
2019-05-25T06:11:34.993Z,6.67
2019-05-25T06:16:40.445Z,6.30
2019-05-25T06:21:45.116Z,5.77
2019-05-25T06:26:51.149Z,5.93
2019-05-25T06:31:56.005Z,6.27
2019-05-25T06:37:00.848Z,5.77
2019-05-25T06:42:05.593Z,6.40
2019-05-25T06:47:10.325Z,7.03
2019-05-25T06:52:15.984Z,5.63
2019-05-25T06:57:21.031Z,6.57
2019-05-25T07:02:27.506Z,6.73
2019-05-25T07:07:38.003Z,5.70
2019-05-25T07:12:44.669Z,7.13
2019-05-25T07:17:52.890Z,6.33
2019-05-25T07:22:58.078Z,6.43
2019-05-25T07:28:02.923Z,5.87
2019-05-25T07:33:07.770Z,4.83
2019-05-25T07:38:12.720Z,3.73
2019-05-25T07:43:18.450Z,4.40
2019-05-25T07:48:24.429Z,4.73
2019-05-25T07:53:29.406Z,4.10
2019-05-25T07:58:34.682Z,4.47
2019-05-25T08:03:40.782Z,3.50
2019-05-25T08:08:45.554Z,3.63
2019-05-25T08:13:51.254Z,4.10
2019-05-25T08:18:57.778Z,3.70
2019-05-25T08:24:02.592Z,4.60
2019-05-25T08:29:07.235Z,4.70
2019-05-25T08:34:12.467Z,5.00
2019-05-25T08:39:17.294Z,3.83
2019-05-25T08:44:22.543Z,4.80
2019-05-25T08:49:32.546Z,4.87
2019-05-25T08:54:37.695Z,4.60
2019-05-25T08:59:42.562Z,5.33
2019-05-25T09:04:50.411Z,5.03
2019-05-25T09:09:55.419Z,4.70
2019-05-25T09:15:00.162Z,5.50
2019-05-25T09:20:08.200Z,5.00
2019-05-25T09:25:14.579Z,5.63
2019-05-25T09:30:19.206Z,5.17
2019-05-25T09:35:25.688Z,5.50
2019-05-25T09:40:30.395Z,6.17
2019-05-25T09:45:35.280Z,5.20
2019-05-25T09:50:40.126Z,5.40
2019-05-25T09:55:48.503Z,5.47
2019-05-25T10:00:53.712Z,6.00
2019-05-25T10:05:58.558Z,4.50
2019-05-25T10:11:03.304Z,5.27
2019-05-25T10:16:08.165Z,4.73
2019-05-25T10:21:14.999Z,5.20
2019-05-25T10:26:22.882Z,5.50
2019-05-25T10:31:25.862Z,4.80
2019-05-25T10:36:30.607Z,6.00
2019-05-25T10:41:35.454Z,5.77
2019-05-25T10:46:41.306Z,5.67
2019-05-25T10:51:47.096Z,5.67
2019-05-25T10:56:51.842Z,6.70
2019-05-25T11:01:56.592Z,5.07
2019-05-25T11:07:01.326Z,5.43
2019-05-25T11:12:06.075Z,6.07
2019-05-25T11:17:10.948Z,5.73
2019-05-25T11:22:15.781Z,6.13
2019-05-25T11:27:20.503Z,4.93
2019-05-25T11:32:25.253Z,5.70
2019-05-25T11:37:30.503Z,5.50
2019-05-25T11:42:35.454Z,5.23
2019-05-25T11:47:40.199Z,5.10
2019-05-25T11:52:45.544Z,4.43
2019-05-25T11:57:50.503Z,7.67
2019-05-25T12:02:55.351Z,4.43
2019-05-25T12:08:00.421Z,5.23
2019-05-25T12:13:05.250Z,4.77
2019-05-25T12:18:09.994Z,4.70
2019-05-25T12:23:14.775Z,3.90
2019-05-25T12:28:19.594Z,4.30
2019-05-25T12:33:24.329Z,4.37
2019-05-25T12:38:29.344Z,4.17
2019-05-25T12:43:34.226Z,4.60
2019-05-25T12:48:40.198Z,4.47
2019-05-25T12:53:45.253Z,4.03
2019-05-25T12:58:50.469Z,4.30
2019-05-25T13:03:56.888Z,4.17
2019-05-25T13:09:01.662Z,4.43
2019-05-25T13:14:14.745Z,4.70
2019-05-25T13:19:13.891Z,3.90
2019-05-25T13:24:18.532Z,3.90
2019-05-25T13:29:23.472Z,4.57
2019-05-25T13:34:28.333Z,4.80
2019-05-25T13:39:34.910Z,4.70
2019-05-25T13:44:40.560Z,5.10
2019-05-25T13:49:46.956Z,4.80
2019-05-25T13:54:52.985Z,5.17
2019-05-25T13:59:59.649Z,4.60
2019-05-25T14:05:05.670Z,4.57
2019-05-25T14:10:10.667Z,4.47
2019-05-25T14:15:15.651Z,5.27
2019-05-25T14:20:20.845Z,4.97
2019-05-25T14:25:25.589Z,4.50
2019-05-25T14:30:33.614Z,4.87
2019-05-25T14:35:38.461Z,4.50
2019-05-25T14:40:43.305Z,5.20
2019-05-25T14:45:48.154Z,4.77
2019-05-25T14:50:52.898Z,4.73
2019-05-25T14:55:57.540Z,5.17
2019-05-25T15:01:02.485Z,4.93
2019-05-25T15:06:07.330Z,5.20
2019-05-25T15:11:15.290Z,5.17
2019-05-25T15:16:21.635Z,4.83
2019-05-25T15:21:26.722Z,5.03
2019-05-25T15:26:31.641Z,5.10
2019-05-25T15:31:36.279Z,4.30
2019-05-25T15:36:41.230Z,4.50
2019-05-25T15:41:45.791Z,4.10
2019-05-25T15:46:50.521Z,4.20
2019-05-25T15:51:55.179Z,4.80
2019-05-25T15:57:00.310Z,4.67
2019-05-25T16:02:05.986Z,4.37
2019-05-25T16:07:10.709Z,4.50
2019-05-25T16:12:15.868Z,5.27
2019-05-25T16:17:21.639Z,5.43
2019-05-25T16:22:28.206Z,5.20
2019-05-25T16:27:32.964Z,4.83
2019-05-25T16:33:09.766Z,4.40
2019-05-25T16:37:44.139Z,4.30
2019-05-25T16:42:48.953Z,4.07
2019-05-25T16:47:54.222Z,9.10
2019-05-25T16:52:58.941Z,5.90
2019-05-25T16:58:03.510Z,6.60
2019-05-25T17:03:08.223Z,28.73
2019-05-25T17:08:13.017Z,11.00
2019-05-25T17:13:17.712Z,15.60
2019-05-25T17:18:22.354Z,7.30
2019-05-25T17:23:27.099Z,9.17
2019-05-25T17:28:31.941Z,38.07
2019-05-25T17:33:45.893Z,40.47
2019-05-25T17:38:43.176Z,14.53
2019-05-25T17:43:47.810Z,13.80
2019-05-25T17:48:52.555Z,12.60
2019-05-25T17:53:58.839Z,16.83
2019-05-25T17:59:03.597Z,14.37
2019-05-25T18:04:10.686Z,8.70
2019-05-25T18:09:16.449Z,17.77
2019-05-25T18:14:21.121Z,10.13
2019-05-25T18:19:26.275Z,10.93
2019-05-25T18:24:31.204Z,25.93
2019-05-25T18:29:37.211Z,14.37
2019-05-25T18:34:41.809Z,25.17
2019-05-25T18:39:48.201Z,17.37
2019-05-25T18:44:54.171Z,40.87
2019-05-25T18:49:59.010Z,15.43
2019-05-25T18:55:06.059Z,11.73
2019-05-25T19:00:11.129Z,35.10
2019-05-25T19:05:16.304Z,16.17
2019-05-25T19:10:22.199Z,14.23
2019-05-25T19:15:27.036Z,11.80
2019-05-25T19:20:34.051Z,18.37
2019-05-25T19:25:39.635Z,13.73
2019-05-25T19:30:45.646Z,10.70
2019-05-25T19:35:54.043Z,8.50
2019-05-25T19:40:58.198Z,9.17
2019-05-25T19:46:03.069Z,9.47
2019-05-25T19:51:10.622Z,9.40
2019-05-25T19:56:17.912Z,30.13
2019-05-25T20:01:22.612Z,16.27
2019-05-25T20:06:27.817Z,10.43
2019-05-25T20:11:32.830Z,9.97
2019-05-25T20:16:37.688Z,10.90
2019-05-25T20:21:42.305Z,17.13
2019-05-25T20:26:46.887Z,16.67
2019-05-25T20:31:53.241Z,11.90
2019-05-25T20:36:58.936Z,8.80
2019-05-25T20:42:04.788Z,11.33
2019-05-25T20:47:11.163Z,18.07
2019-05-25T20:52:15.936Z,10.47
2019-05-25T20:57:20.759Z,11.30
2019-05-25T21:02:25.589Z,12.83
2019-05-25T21:07:30.329Z,17.97
2019-05-25T21:12:35.720Z,11.73
2019-05-25T21:17:40.759Z,10.63
2019-05-25T21:22:46.689Z,12.27
2019-05-25T21:27:54.058Z,10.80
2019-05-25T21:33:00.085Z,11.30
2019-05-25T21:38:05.630Z,11.37
2019-05-25T21:43:10.792Z,10.43
2019-05-25T21:48:16.193Z,13.07
2019-05-25T21:53:21.114Z,11.80
2019-05-25T21:58:25.967Z,10.73
2019-05-25T22:03:30.852Z,10.73
2019-05-25T22:08:35.552Z,12.80
2019-05-25T22:13:41.291Z,12.80
2019-05-25T22:18:46.055Z,12.03
2019-05-25T22:23:50.803Z,13.67
2019-05-25T22:28:55.870Z,12.20
2019-05-25T22:34:00.833Z,11.10
2019-05-25T22:39:08.023Z,11.13
2019-05-25T22:44:12.578Z,12.73
2019-05-25T22:49:17.282Z,11.27
2019-05-25T22:54:21.843Z,14.87
2019-05-25T22:59:26.568Z,12.57
2019-05-25T23:04:31.308Z,16.33
2019-05-25T23:09:36.052Z,12.60
2019-05-25T23:14:40.792Z,11.13
2019-05-25T23:19:45.537Z,10.87
2019-05-25T23:24:50.284Z,10.57
2019-05-25T23:29:56.039Z,10.57
2019-05-25T23:35:00.792Z,10.53
2019-05-25T23:40:08.442Z,10.87
2019-05-25T23:45:14.801Z,10.80
2019-05-25T23:50:19.529Z,10.70
2019-05-25T23:55:24.269Z,11.20
